^^
Datos históricos de la estación: Murcia-Puente Tocinos
Diario Informe para Junio 8, 2021 Unidades:  Ingés    Métrico   Ambas
Diario Semanal Mensual Anual
  Máxima: Mínima: Promedio:
Temperatura: 71.8 °F 64.9 °F 67.1 °F
Punto de rocio: 62.8 °F 60.3 °F 61.5 °F
Humedad: 86% 73% 83%
Velocidad viento: 4.7mph 0mph 2.1mph
Racha viento: 8.1mph - -
Viento- - ESE
Presión: 30.1 in 30 in -
Precipitación: 0 in    
 
 
Tabla de datos para Junio 8, 2021
Hora Temperatura Punto de rocio Presión Viento Velocidad viento Racha viento Humedad Intensidad lluvia(por hora) Nubes
00:04 68.2 °F 62.1 °F 30 in NO 2.4 mph 4.6 mph 81% 0 in
00:09 68.2 °F 62.1 °F 30 in NO 2.5 mph 4.6 mph 81% 0 in
00:14 68 °F 61.9 °F 30 in NO 2.9 mph 4.6 mph 81% 0 in
00:19 67.8 °F 62.2 °F 30 in NO 2.7 mph 3.6 mph 82% 0 in
00:24 67.8 °F 62.1 °F 30 in NNO 2 mph 4 mph 82% 0 in
00:29 67.8 °F 62.1 °F 30 in North 2.2 mph 5.2 mph 82% 0 in
00:34 67.6 °F 61.9 °F 30 in NNE 2.9 mph 4.6 mph 82% 0 in
00:39 67.6 °F 61.9 °F 30 in NNE 2.9 mph 3.6 mph 82.1% 0 in
00:44 67.5 °F 62.1 °F 30 in NNE 2.9 mph 4.6 mph 83% 0 in
00:49 67.5 °F 62.1 °F 30 in NNE 2.7 mph 3.6 mph 83% 0 in
00:54 67.5 °F 62.1 °F 30 in NNE 2 mph 4.6 mph 83% 0 in
00:59 67.3 °F 61.9 °F 30 in NNE 1.9 mph 2.9 mph 83% 0 in
01:04 67.3 °F 61.9 °F 30 in NNE 1.8 mph 2.3 mph 83% 0 in
01:09 67.3 °F 61.9 °F 30 in NNE 1.5 mph 2.3 mph 83% 0 in
01:14 67.1 °F 61.9 °F 30 in Calm     83% 0 in
01:19 67.1 °F 62.1 °F 30 in Calm     83.9% 0 in
01:24 66.9 °F 61.9 °F 30 in Calm   1.8 mph 84% 0 in
01:29 66.9 °F 61.9 °F 30 in Calm   2.4 mph 84% 0 in
01:34 66.9 °F 61.9 °F 30 in Calm     84% 0 in
01:39 66.9 °F 61.9 °F 30 in Calm     84% 0 in
01:44 66.9 °F 61.9 °F 30 in Calm     84% 0 in
01:49 66.9 °F 61.9 °F 30 in Calm   2.9 mph 84% 0 in
01:54 66.9 °F 61.9 °F 30 in Calm   2.4 mph 84% 0 in
01:59 66.9 °F 61.9 °F 30 in NNE 0.3 mph 2.3 mph 84% 0 in
02:04 66.9 °F 61.9 °F 30 in NNE 1.4 mph 1.4 mph 84% 0 in
02:09 66.9 °F 61.9 °F 30 in NNE 1.1 mph 1.8 mph 84% 0 in
02:14 66.9 °F 62.1 °F 30 in Calm   2.4 mph 84.6% 0 in
02:19 66.9 °F 61.9 °F 30 in Calm   1.4 mph 84% 0 in
02:24 66.9 °F 62.1 °F 30 in Calm     84.5% 0 in
02:29 66.9 °F 62.2 °F 30 in Calm   2.4 mph 85% 0 in
02:34 66.9 °F 61.9 °F 30 in Calm   2.4 mph 84.1% 0 in
02:39 66.7 °F 61.7 °F 30 in ENE 0.4 mph 3.5 mph 84% 0 in
02:44 66.7 °F 61.7 °F 30 in Este 1.8 mph 3.6 mph 84% 0 in
02:49 66.6 °F 61.5 °F 30 in ESE 1.9 mph 3.6 mph 84% 0 in
02:54 66.4 °F 61.3 °F 30 in SSE 2.4 mph 4.7 mph 84% 0 in
02:59 66.4 °F 61.3 °F 30 in SSE 2.5 mph 4.6 mph 84% 0 in
03:04 66.4 °F 61.3 °F 30 in Sur 2.9 mph 4.6 mph 84% 0 in
03:09 66.4 °F 61.3 °F 30 in SSE 2.9 mph 4.7 mph 84% 0 in
03:14 66.4 °F 61.3 °F 30 in SSE 2.9 mph 4.7 mph 84% 0 in
03:19 66.4 °F 61.3 °F 30 in SSE 2.9 mph 3.6 mph 84% 0 in
03:24 66.4 °F 61.3 °F 30 in SSE 2.9 mph 3.5 mph 84% 0 in
03:29 66.2 °F 61.2 °F 30 in SSE 2.7 mph 4 mph 84% 0 in
03:34 66 °F 61 °F 30 in Sur 1.8 mph 4.6 mph 84% 0 in
03:39 65.8 °F 61 °F 30 in Sur 1.8 mph 2.4 mph 84% 0 in
03:44 65.7 °F 60.8 °F 30 in Sur 1.8 mph 1.4 mph 84% 0 in
03:49 65.7 °F 61 °F 30 in Sur 1.5 mph 1.4 mph 84.8% 0 in
03:54 65.5 °F 60.8 °F 30 in Calm     85% 0 in
03:59 65.5 °F 60.8 °F 30 in Calm     85% 0 in
04:00 65.5 °F 60.8 °F 30 in Calm     85% 0 in
04:09 65.3 °F 60.6 °F 30 in Calm     85% 0 in
04:14 65.1 °F 60.4 °F 30 in Calm   2.3 mph 85% 0 in
04:19 65.1 °F 60.4 °F 30 in Sur 0.2 mph 2.9 mph 85% 0 in
04:24 65.1 °F 60.8 °F 30 in Sur 1.4 mph 3.5 mph 85.7% 0 in
04:29 65.1 °F 60.8 °F 30 in Sur 1.4 mph 3.5 mph 86% 0 in
04:34 65.1 °F 60.8 °F 30 in Sur 1.4 mph 2.3 mph 86% 0 in
04:39 65.1 °F 60.8 °F 30 in Sur 1.4 mph 3.5 mph 86% 0 in
04:44 65.1 °F 60.8 °F 30 in Sur 1.4 mph 3.6 mph 86% 0 in
04:49 65.1 °F 60.8 °F 30 in Sur 1.5 mph 3.5 mph 86% 0 in
04:54 65.1 °F 60.8 °F 30 in SSE 2 mph 3.6 mph 86% 0 in
04:59 65.1 °F 60.8 °F 30 in SE 2 mph 3.6 mph 86% 0 in
05:04 65.1 °F 60.6 °F 30 in SE 2 mph 3.6 mph 85.4% 0 in
05:09 65.1 °F 60.6 °F 30 in ESE 2 mph 4.6 mph 85.4% 0 in
05:14 65.1 °F 60.6 °F 30 in ESE 2 mph 3.6 mph 85.5% 0 in
05:19 65.1 °F 60.4 °F 30 in SSE 2.1 mph 4.6 mph 85% 0 in
05:24 64.9 °F 60.3 °F 30 in SSE 2.4 mph 4.7 mph 85% 0 in
05:29 64.9 °F 60.3 °F 30 in SSE 2.5 mph 5.9 mph 85% 0 in
05:34 64.9 °F 60.6 °F 30 in Sur 3.1 mph 5.8 mph 85.9% 0 in
05:39 64.9 °F 60.6 °F 30 in Sur 3.1 mph 4.7 mph 86% 0 in
05:44 65.1 °F 60.8 °F 30 in Sur 3.1 mph 4.7 mph 86% 0 in
05:49 65.1 °F 60.8 °F 30 in Sur 3 mph 4.6 mph 86% 0 in
05:54 65.5 °F 61.2 °F 30 in Sur 2.4 mph 3.5 mph 86% 0 in
05:59 65.5 °F 61.2 °F 30 in Sur 2.3 mph 3.5 mph 85.9% 0 in
06:04 65.7 °F 61 °F 30 in SO 1.8 mph 3.6 mph 85% 0 in
06:09 65.7 °F 61 °F 30 in Oeste 1.8 mph 2.4 mph 85% 0 in
06:14 65.7 °F 61 °F 30 in Oeste 1.8 mph 2.4 mph 85% 0 in
06:19 65.8 °F 61.2 °F 30 in Oeste 1.7 mph 2.4 mph 85% 0 in
06:24 65.8 °F 61.2 °F 30 in Oeste 1.4 mph 4.6 mph 85% 0 in
06:29 65.8 °F 61.2 °F 30 in Oeste 1.4 mph 2.3 mph 85% 0 in
06:34 65.7 °F 61 °F 30 in Oeste 1.4 mph 2.4 mph 85% 0 in
06:39 65.7 °F 61 °F 30 in Oeste 1.4 mph 2.9 mph 85% 0 in
06:44 65.7 °F 61 °F 30 in Oeste 1.4 mph 2.3 mph 85% 0 in
06:49 65.7 °F 61 °F 30 in Oeste 1.4 mph 3.1 mph 85% 0 in
06:54 65.7 °F 61 °F 30 in SO 1.4 mph 5.2 mph 85% 0 in
06:59 65.7 °F 61 °F 30 in SSO 1.8 mph 6.4 mph 85% 0 in
07:04 65.7 °F 61 °F 30 in SSO 3.6 mph 6.9 mph 85% 0 in
07:09 65.7 °F 61 °F 30 in Sur 3.7 mph 6.9 mph 85% 0 in
07:14 65.7 °F 61 °F 30 in Este 4 mph 5.8 mph 85% 0 in
07:19 65.7 °F 61 °F 30 in ESE 3.8 mph 5.2 mph 85% 0 in
07:24 65.5 °F 60.6 °F 30 in SSE 2.9 mph 6.9 mph 84.7% 0 in
07:29 65.1 °F 60.6 °F 30 in SSE 3.3 mph 6.9 mph 85% 0 in
07:34 65.1 °F 60.4 °F 30 in Sur 4.7 mph 5.9 mph 85% 0 in
07:39 65.1 °F 60.4 °F 30 in SSE 4.5 mph 5.9 mph 85.1% 0 in
07:44 65.1 °F 60.8 °F 30 in Sur 3.6 mph 5.2 mph 86% 0 in
07:49 65.1 °F 60.8 °F 30 in SSO 3.5 mph 4.7 mph 86% 0 in
07:50 65.1 °F 60.8 °F 30 in SSO 3.1 mph 4.6 mph 86% 0 in
21:09 71.6 °F 62.6 °F 30 in NE 3.1 mph 6 mph 73.2% 0 in
21:14 71.8 °F 62.8 °F 30 in Este 3.1 mph 6.2 mph 73% 0 in
21:19 71.6 °F 62.6 °F 30 in ENE 3.2 mph 6.9 mph 73% 0 in
21:24 71.6 °F 62.4 °F 30 in NE 3.6 mph 7.4 mph 73% 0 in
21:29 71.4 °F 62.4 °F 30 in ENE 3.7 mph 8.1 mph 73% 0 in
21:34 71.4 °F 62.2 °F 30 in NE 4 mph 6.9 mph 73% 0 in
21:39 71.2 °F 62.4 °F 30.1 in North 3.8 mph 5.8 mph 73.7% 0 in
21:44 71.1 °F 62.4 °F 30.1 in NE 3.1 mph 5.2 mph 74.1% 0 in
21:49 70.7 °F 62.4 °F 30.1 in North 3.1 mph 5.9 mph 75% 0 in
21:54 70.3 °F 62.2 °F 30.1 in North 3.1 mph 5.9 mph 75.7% 0 in
21:59 70.2 °F 62.2 °F 30.1 in NNE 3.2 mph 5.2 mph 76.3% 0 in
22:04 69.8 °F 62.2 °F 30.1 in North 3.6 mph 5.8 mph 77% 0 in
22:09 69.6 °F 62.1 °F 30.1 in NNE 3.4 mph 5.2 mph 77% 0 in
22:14 69.4 °F 62.4 °F 30.1 in NNE 2.9 mph 6.2 mph 78% 0 in
22:19 69.4 °F 62.2 °F 30.1 in NE 2.9 mph 5.4 mph 78% 0 in
22:24 69.3 °F 62.1 °F 30.1 in NE 3.1 mph 8.1 mph 78% 0 in
22:29 69.1 °F 62.1 °F 30.1 in NE 3.3 mph 8.1 mph 78.5% 0 in
22:34 69.1 °F 62.2 °F 30.1 in NE 4 mph 6.9 mph 79% 0 in
22:39 69.1 °F 62.2 °F 30.1 in NNE 3.9 mph 4.6 mph 79% 0 in
22:44 69.1 °F 62.2 °F 30.1 in NNE 3.6 mph 3.5 mph 79% 0 in
22:49 69.1 °F 62.2 °F 30.1 in NNE 3.2 mph 2.9 mph 79% 0 in
22:54 69.1 °F 62.2 °F 30.1 in NNE 1.4 mph 3.6 mph 78.9% 0 in
22:59 69.1 °F 62.2 °F 30.1 in NNE 1.6 mph 4.6 mph 79% 0 in
23:04 69.1 °F 62.2 °F 30.1 in NNE 2.4 mph 3.5 mph 79% 0 in
23:09 68.9 °F 62.2 °F 30.1 in NNE 2.3 mph 4.6 mph 79% 0 in
23:14 68.9 °F 62.1 °F 30.1 in NNE 2 mph 4.6 mph 79% 0 in
23:19 68.7 °F 61.9 °F 30.1 in NNE 2.2 mph 4.6 mph 79% 0 in
23:24 68.7 °F 61.9 °F 30.1 in NNE 2.9 mph 5.9 mph 79% 0 in
23:29 68.5 °F 61.9 °F 30.1 in NE 2.9 mph 5.9 mph 79.4% 0 in
23:34 68.5 °F 62.1 °F 30.1 in NE 3.1 mph 3.5 mph 80% 0 in
23:39 68.4 °F 61.9 °F 30.1 in NNE 2.9 mph 4.6 mph 80% 0 in
23:44 68.4 °F 61.9 °F 30.1 in NNE 2 mph 3.6 mph 80% 0 in
23:49 68.4 °F 61.9 °F 30.1 in NNE 2 mph 3.6 mph 80% 0 in
23:54 68.4 °F 61.9 °F 30.1 in NE 2 mph 5.8 mph 80% 0 in
23:59 68.2 °F 61.9 °F 30.1 in NNE 2.4 mph 6.9 mph 80% 0 in
Murcia-Puente Tocinos, España
Compliments of Weather Underground - 2.5 mb

La estación de MeteoMurcia.com, publica sus datos en los siguientes proyectos:

Weather Underground PWS IMURCIAP2 Meteoclimatic www.awekas.at

W3Counter
Web Analytics